createdAt,value
2018-09-24T00:01:11.371Z,60528.98
2018-09-24T00:03:39.576Z,60512.72
2018-09-24T00:06:08.007Z,60528.98
2018-09-24T00:08:36.209Z,60528.98
2018-09-24T00:11:04.416Z,60509.67
2018-09-24T00:13:32.602Z,60515.77
2018-09-24T00:16:00.814Z,60526.95
2018-09-24T00:18:29.003Z,60533.04
2018-09-24T00:20:57.228Z,60519.83
2018-09-24T00:23:25.430Z,60506.62
2018-09-24T00:25:53.652Z,60520.85
2018-09-24T00:28:21.991Z,60547.27
2018-09-24T00:30:50.192Z,60539.14
2018-09-24T00:33:18.403Z,60555.40
2018-09-24T00:35:46.600Z,60533.04
2018-09-24T00:38:14.881Z,60546.25
2018-09-24T00:40:43.072Z,60512.72
2018-09-24T00:43:11.285Z,60556.41
2018-09-24T00:45:39.469Z,60537.11
2018-09-24T00:48:07.671Z,60549.30
2018-09-24T00:50:35.896Z,60522.88
2018-09-24T00:53:04.102Z,60516.78
2018-09-24T00:55:32.419Z,60527.96
2018-09-24T00:58:00.607Z,60509.67
2018-09-24T01:00:28.868Z,60540.15
2018-09-24T01:02:57.062Z,60554.38
2018-09-24T01:05:25.288Z,60520.85
2018-09-24T01:07:53.518Z,60531.01
2018-09-24T01:10:21.729Z,60515.77
2018-09-24T01:12:49.934Z,60534.06
2018-09-24T01:15:18.129Z,60546.25
2018-09-24T01:17:46.320Z,60529.99
2018-09-24T01:20:14.503Z,60509.67
2018-09-24T01:22:42.708Z,60527.96
2018-09-24T01:25:10.898Z,60549.30
2018-09-24T01:27:39.083Z,60497.47
2018-09-24T01:30:07.310Z,60533.04
2018-09-24T01:32:35.535Z,60512.72
2018-09-24T01:35:03.817Z,60540.15
2018-09-24T01:37:32.006Z,60525.93
2018-09-24T01:40:00.222Z,60550.32
2018-09-24T01:42:28.435Z,60545.23
2018-09-24T01:44:56.627Z,60512.72
2018-09-24T01:47:24.834Z,60535.07
2018-09-24T01:49:53.041Z,60552.35
2018-09-24T01:52:21.279Z,60495.44
2018-09-24T01:54:49.500Z,60515.77
2018-09-24T01:57:18.617Z,60529.99
2018-09-24T01:59:52.707Z,60521.86
2018-09-24T02:02:21.109Z,60547.27
2018-09-24T02:04:49.683Z,60529.99
2018-09-24T02:07:17.963Z,60497.47
2018-09-24T02:09:46.793Z,60515.77
2018-09-24T02:12:14.984Z,60509.67
2018-09-24T02:14:43.208Z,60532.02
2018-09-24T02:17:21.518Z,60541.17
2018-09-24T02:19:50.311Z,60537.11
2018-09-24T02:22:28.405Z,60536.09
2018-09-24T02:24:57.474Z,60545.23
2018-09-24T02:27:25.683Z,60501.54
2018-09-24T02:29:53.922Z,60566.57
2018-09-24T02:32:22.247Z,60531.01
2018-09-24T02:34:52.172Z,60527.96
2018-09-24T02:37:20.388Z,60529.99
2018-09-24T02:39:48.584Z,60520.85
2018-09-24T02:42:16.787Z,60532.02
2018-09-24T02:44:44.980Z,60516.78
2018-09-24T02:47:13.171Z,60508.65
2018-09-24T02:49:41.388Z,60528.98
2018-09-24T02:52:09.636Z,60501.54
2018-09-24T02:54:37.823Z,60536.09
2018-09-24T02:57:06.031Z,60529.99
2018-09-24T02:59:34.252Z,60545.23
2018-09-24T03:02:02.464Z,60549.30
2018-09-24T03:04:30.672Z,60551.33
2018-09-24T03:06:58.883Z,60522.88
2018-09-24T03:09:27.106Z,60536.09
2018-09-24T03:11:55.315Z,60537.11
2018-09-24T03:14:24.459Z,60558.45
2018-09-24T03:16:53.333Z,60506.62
2018-09-24T03:19:21.519Z,60552.35
2018-09-24T03:21:49.747Z,60508.65
2018-09-24T03:24:17.940Z,60551.33
2018-09-24T03:26:46.136Z,60532.02
2018-09-24T03:29:20.990Z,60503.57
2018-09-24T03:31:49.184Z,60511.70
2018-09-24T03:34:18.252Z,60510.68
2018-09-24T03:36:47.149Z,60535.07
2018-09-24T03:39:15.331Z,60549.30
2018-09-24T03:41:43.878Z,60511.70
2018-09-24T03:44:12.085Z,60550.32
2018-09-24T03:46:40.880Z,60509.67
2018-09-24T03:49:09.345Z,60535.07
2018-09-24T03:51:37.531Z,60531.01
2018-09-24T03:54:05.731Z,60556.41
2018-09-24T03:56:33.948Z,60554.38
2018-09-24T03:59:02.175Z,60521.86
2018-09-24T04:01:30.347Z,60540.15
2018-09-24T04:04:03.899Z,60509.67
2018-09-24T04:06:37.414Z,60542.19
2018-09-24T04:09:13.344Z,60532.02
2018-09-24T04:11:46.970Z,60538.12
2018-09-24T04:14:20.495Z,60537.11
2018-09-24T04:16:53.887Z,60566.57
2018-09-24T04:19:27.498Z,60527.96
2018-09-24T04:22:00.881Z,60562.51
2018-09-24T04:24:34.439Z,60529.99
2018-09-24T04:27:07.960Z,60522.88
2018-09-24T04:29:41.511Z,60525.93
2018-09-24T04:32:14.960Z,60546.25
2018-09-24T04:34:48.459Z,60544.22
2018-09-24T04:37:22.007Z,60566.57
2018-09-24T04:39:55.552Z,60538.12
2018-09-24T04:42:29.101Z,60543.20
2018-09-24T04:45:02.640Z,60536.09
2018-09-24T04:47:36.403Z,60565.56
2018-09-24T04:50:09.942Z,60563.53
2018-09-24T04:52:43.375Z,60513.73
2018-09-24T04:55:16.925Z,60545.23
2018-09-24T04:57:50.457Z,60563.53
2018-09-24T05:00:23.963Z,60545.23
2018-09-24T05:02:57.512Z,60550.32
2018-09-24T05:05:31.008Z,60543.20
2018-09-24T05:08:04.495Z,60552.35
2018-09-24T05:10:38.135Z,60559.46
2018-09-24T05:13:11.612Z,60566.57
2018-09-24T05:15:45.057Z,60542.19
2018-09-24T05:18:18.495Z,60519.83
2018-09-24T05:20:51.994Z,60532.02
2018-09-24T05:23:25.444Z,60546.25
2018-09-24T05:25:59.006Z,60507.64
2018-09-24T05:28:32.580Z,60526.95
2018-09-24T05:31:06.145Z,60544.22
2018-09-24T05:33:39.687Z,60550.32
2018-09-24T05:36:13.126Z,60543.20
2018-09-24T05:38:46.663Z,60540.15
2018-09-24T05:41:20.272Z,60525.93
2018-09-24T05:43:53.774Z,60543.20
2018-09-24T05:46:27.213Z,60533.04
2018-09-24T05:49:00.664Z,60537.11
2018-09-24T05:51:34.192Z,60520.85
2018-09-24T05:54:07.708Z,60540.15
2018-09-24T05:56:41.132Z,60537.11
2018-09-24T05:59:14.691Z,60539.14
2018-09-24T06:01:48.228Z,60551.33
2018-09-24T06:04:21.775Z,60535.07
2018-09-24T06:06:55.243Z,60564.54
2018-09-24T06:09:28.703Z,60526.95
2018-09-24T06:12:02.127Z,60535.07
2018-09-24T06:14:35.511Z,60545.23
2018-09-24T06:17:08.959Z,60536.09
2018-09-24T06:19:42.604Z,60522.88
2018-09-24T06:22:16.125Z,60522.88
2018-09-24T06:24:49.688Z,60516.78
2018-09-24T06:27:23.148Z,60537.11
2018-09-24T06:29:56.742Z,60551.33
2018-09-24T06:32:30.512Z,60552.35
2018-09-24T06:35:04.356Z,60534.06
2018-09-24T06:37:37.675Z,60544.22
2018-09-24T06:40:11.145Z,60513.73
2018-09-24T06:42:44.664Z,60540.15
2018-09-24T06:45:18.092Z,60540.15
2018-09-24T06:47:51.595Z,60537.11
2018-09-24T06:50:25.028Z,60547.27
2018-09-24T06:52:58.489Z,60545.23
2018-09-24T06:55:32.787Z,60527.96
2018-09-24T06:58:06.373Z,60538.12
2018-09-24T07:00:39.723Z,60548.29
2018-09-24T07:03:14.866Z,60544.22
2018-09-24T07:05:48.421Z,60529.99
2018-09-24T07:08:21.853Z,60526.95
2018-09-24T07:10:55.271Z,60533.04
2018-09-24T07:13:28.848Z,60531.01
2018-09-24T07:16:02.308Z,60557.43
2018-09-24T07:18:35.835Z,60545.23
2018-09-24T07:21:09.289Z,60528.98
2018-09-24T07:23:42.897Z,60550.32
2018-09-24T07:26:16.371Z,60523.89
2018-09-24T07:28:49.933Z,60533.04
2018-09-24T07:31:23.391Z,60543.20
2018-09-24T07:33:56.876Z,60536.09
2018-09-24T07:36:30.314Z,60523.89
2018-09-24T07:39:03.897Z,60535.07
2018-09-24T07:41:37.433Z,60536.09
2018-09-24T07:44:10.990Z,60518.82
2018-09-24T07:46:44.444Z,60540.15
2018-09-24T07:49:18.023Z,60533.04
2018-09-24T07:51:51.527Z,60536.09
2018-09-24T07:54:25.008Z,60525.93
2018-09-24T07:56:58.425Z,60555.40
2018-09-24T07:59:32.018Z,60544.22
2018-09-24T08:02:05.523Z,60527.96
2018-09-24T08:04:39.005Z,60525.93
2018-09-24T08:07:12.481Z,60514.75
2018-09-24T08:09:45.918Z,60569.62
2018-09-24T08:12:19.486Z,60544.22
2018-09-24T08:14:53.473Z,60507.64
2018-09-24T08:17:26.917Z,60525.93
2018-09-24T08:20:00.474Z,60545.23
2018-09-24T08:22:34.002Z,60516.78
2018-09-24T08:25:07.459Z,60498.49
2018-09-24T08:27:41.023Z,60545.23
2018-09-24T08:30:14.579Z,60522.88
2018-09-24T08:32:48.111Z,60537.11
2018-09-24T08:35:21.549Z,60511.70
2018-09-24T08:37:55.064Z,60517.80
2018-09-24T08:40:28.498Z,60514.75
2018-09-24T08:43:02.024Z,60492.39
2018-09-24T08:45:35.488Z,60516.78
2018-09-24T08:48:08.944Z,60506.62
2018-09-24T08:50:42.396Z,60510.68
2018-09-24T08:53:15.906Z,60532.02
2018-09-24T08:55:49.327Z,60512.72
2018-09-24T08:58:22.831Z,60501.54
2018-09-24T09:00:56.402Z,60490.36
2018-09-24T09:03:29.864Z,60492.39
2018-09-24T09:06:03.373Z,60490.36
2018-09-24T09:08:36.858Z,60505.60
2018-09-24T09:11:10.376Z,60493.41
2018-09-24T09:13:43.882Z,60483.25
2018-09-24T09:16:17.358Z,60490.36
2018-09-24T09:18:50.892Z,60468.00
2018-09-24T09:21:24.455Z,60489.34
2018-09-24T09:23:57.953Z,60504.59
2018-09-24T09:26:31.455Z,60495.44
2018-09-24T09:29:04.999Z,60477.15
2018-09-24T09:31:38.551Z,60473.09
2018-09-24T09:34:12.224Z,60490.36
2018-09-24T09:36:45.928Z,60473.09
2018-09-24T09:39:19.367Z,60452.76
2018-09-24T09:41:52.858Z,60443.61
2018-09-24T09:44:26.331Z,60438.53
2018-09-24T09:46:59.806Z,60488.33
2018-09-24T09:49:33.383Z,60475.12
2018-09-24T09:52:06.847Z,60445.65
2018-09-24T09:54:40.356Z,60477.15
2018-09-24T09:57:13.844Z,60472.07
2018-09-24T09:59:47.303Z,60456.82
2018-09-24T10:02:20.765Z,60461.91
2018-09-24T10:04:54.292Z,60471.05
2018-09-24T10:07:27.668Z,60472.07
2018-09-24T10:10:01.259Z,60435.48
2018-09-24T10:12:34.648Z,60434.47
2018-09-24T10:15:08.215Z,60481.21
2018-09-24T10:17:41.672Z,60479.18
2018-09-24T10:20:15.267Z,60454.79
2018-09-24T10:22:48.820Z,60447.68
2018-09-24T10:25:22.281Z,60460.89
2018-09-24T10:27:55.816Z,60491.38
2018-09-24T10:30:29.276Z,60453.78
2018-09-24T10:33:02.868Z,60480.20
2018-09-24T10:35:36.299Z,60474.10
2018-09-24T10:38:09.747Z,60466.99
2018-09-24T10:40:43.163Z,60468.00
2018-09-24T10:43:16.608Z,60427.36
2018-09-24T10:45:50.051Z,60444.63
2018-09-24T10:48:23.496Z,60455.81
2018-09-24T10:50:57.121Z,60431.42
2018-09-24T10:53:30.559Z,60410.08
2018-09-24T10:56:04.019Z,60405.00
2018-09-24T10:58:37.626Z,60421.26
2018-09-24T11:01:11.104Z,60428.37
2018-09-24T11:03:44.571Z,60411.10
2018-09-24T11:06:17.963Z,60452.76
2018-09-24T11:08:51.414Z,60417.20
2018-09-24T11:11:24.890Z,60432.44
2018-09-24T11:13:58.300Z,60435.48
2018-09-24T11:16:31.842Z,60465.97
2018-09-24T11:19:05.284Z,60439.55
2018-09-24T11:21:38.790Z,60449.71
2018-09-24T11:24:12.344Z,60460.89
2018-09-24T11:26:45.907Z,60422.27
2018-09-24T11:29:19.495Z,60479.18
2018-09-24T11:31:52.968Z,60474.10
2018-09-24T11:34:26.513Z,60456.82
2018-09-24T11:36:59.952Z,60463.94
2018-09-24T11:39:33.526Z,60469.02
2018-09-24T11:42:07.078Z,60457.84
2018-09-24T11:44:40.604Z,60439.55
2018-09-24T11:47:14.231Z,60451.75
2018-09-24T11:49:47.638Z,60449.71
2018-09-24T11:52:21.209Z,60444.63
2018-09-24T11:54:54.755Z,60407.03
2018-09-24T11:57:28.322Z,60402.97
2018-09-24T12:00:01.840Z,60409.07
2018-09-24T12:02:35.259Z,60416.18
2018-09-24T12:05:08.833Z,60418.21
2018-09-24T12:07:42.390Z,60421.26
2018-09-24T12:10:15.934Z,60429.39
2018-09-24T12:12:49.462Z,60426.34
2018-09-24T12:15:22.933Z,60418.21
2018-09-24T12:17:56.534Z,60446.66
2018-09-24T12:20:29.946Z,60441.58
2018-09-24T12:23:03.415Z,60444.63
2018-09-24T12:25:36.824Z,60432.44
2018-09-24T12:28:10.380Z,60412.11
2018-09-24T12:30:43.883Z,60406.02
2018-09-24T12:33:17.445Z,60421.26
2018-09-24T12:35:50.993Z,60433.45
2018-09-24T12:38:24.443Z,60420.24
2018-09-24T12:40:57.879Z,60427.36
2018-09-24T12:43:31.307Z,60414.14
2018-09-24T12:46:04.815Z,60413.13
2018-09-24T12:48:38.401Z,60397.89
2018-09-24T12:51:11.975Z,60411.10
2018-09-24T12:53:45.392Z,60399.92
2018-09-24T12:56:18.937Z,60392.80
2018-09-24T12:58:52.391Z,60412.11
2018-09-24T13:01:25.800Z,60402.97
2018-09-24T13:03:59.367Z,60405.00
2018-09-24T13:06:32.859Z,60401.95
2018-09-24T13:09:06.367Z,60409.07
2018-09-24T13:11:39.963Z,60431.42
2018-09-24T13:14:13.497Z,60398.90
2018-09-24T13:16:46.951Z,60429.39
2018-09-24T13:19:20.413Z,60424.31
2018-09-24T13:21:53.994Z,60414.14
2018-09-24T13:24:27.527Z,60440.57
2018-09-24T13:27:01.012Z,60423.29
2018-09-24T13:29:34.455Z,60418.21
2018-09-24T13:32:07.932Z,60422.27
2018-09-24T13:34:41.394Z,60429.39
2018-09-24T13:37:14.911Z,60423.29
2018-09-24T13:39:48.472Z,60423.29
2018-09-24T13:42:21.931Z,60428.37
2018-09-24T13:44:55.488Z,60423.29
2018-09-24T13:47:28.912Z,60443.61
2018-09-24T13:50:02.388Z,60438.53
2018-09-24T13:52:35.919Z,60416.18
2018-09-24T13:55:09.387Z,60425.32
2018-09-24T13:57:42.850Z,60445.65
2018-09-24T14:00:16.316Z,60419.23
2018-09-24T14:02:49.866Z,60427.36
2018-09-24T14:05:23.330Z,60420.24
2018-09-24T14:07:56.891Z,60427.36
2018-09-24T14:10:30.435Z,60427.36
2018-09-24T14:13:03.863Z,60407.03
2018-09-24T14:15:37.299Z,60409.07
2018-09-24T14:18:10.901Z,60403.98
2018-09-24T14:20:44.483Z,60458.86
2018-09-24T14:23:17.937Z,60417.20
2018-09-24T14:25:51.451Z,60428.37
2018-09-24T14:28:25.054Z,60412.11
2018-09-24T14:30:58.522Z,60409.07
2018-09-24T14:33:31.984Z,60402.97
2018-09-24T14:36:05.479Z,60409.07
2018-09-24T14:38:38.935Z,60435.48
2018-09-24T14:41:12.456Z,60436.50
2018-09-24T14:43:46.020Z,60409.07
2018-09-24T14:46:20.335Z,60428.37
2018-09-24T14:48:53.834Z,60423.29
2018-09-24T14:51:27.219Z,60412.11
2018-09-24T14:54:00.719Z,60437.52
2018-09-24T14:56:34.307Z,60433.45
2018-09-24T14:59:07.831Z,60415.16
2018-09-24T15:01:41.295Z,60406.02
2018-09-24T15:04:14.791Z,60412.11
2018-09-24T15:06:48.347Z,60391.79
2018-09-24T15:09:21.783Z,60412.11
2018-09-24T15:11:55.282Z,60362.32
2018-09-24T15:14:28.872Z,60427.36
2018-09-24T15:17:02.295Z,60410.08
2018-09-24T15:19:35.866Z,60421.26
2018-09-24T15:22:09.477Z,60415.16
2018-09-24T15:24:42.909Z,60393.82
2018-09-24T15:27:16.389Z,60395.86
2018-09-24T15:29:49.928Z,60438.53
2018-09-24T15:32:23.485Z,60413.13
2018-09-24T15:34:57.097Z,60433.45
2018-09-24T15:37:30.539Z,60422.27
2018-09-24T15:40:04.200Z,60425.32
2018-09-24T15:42:37.690Z,60431.42
2018-09-24T15:45:11.200Z,60409.07
2018-09-24T15:47:44.796Z,60437.52
2018-09-24T15:50:18.323Z,60409.07
2018-09-24T15:52:51.902Z,60414.14
2018-09-24T15:55:25.468Z,60403.98
2018-09-24T15:57:59.044Z,60410.08
2018-09-24T16:00:32.520Z,60417.20
2018-09-24T16:03:06.018Z,60410.08
2018-09-24T16:05:39.628Z,60406.02
2018-09-24T16:08:13.156Z,60422.27
2018-09-24T16:10:46.755Z,60429.39
2018-09-24T16:13:20.182Z,60413.13
2018-09-24T16:15:53.688Z,60439.55
2018-09-24T16:18:27.242Z,60413.13
2018-09-24T16:21:00.816Z,60409.07
2018-09-24T16:23:34.335Z,60423.29
2018-09-24T16:26:07.855Z,60436.50
2018-09-24T16:28:41.377Z,60417.20
2018-09-24T16:31:14.868Z,60418.21
2018-09-24T16:33:48.283Z,60436.50
2018-09-24T16:36:21.823Z,60429.39
2018-09-24T16:38:55.316Z,60415.16
2018-09-24T16:41:28.756Z,60406.02
2018-09-24T16:44:02.175Z,60427.36
2018-09-24T16:46:35.623Z,60402.97
2018-09-24T16:49:09.116Z,60422.27
2018-09-24T16:51:42.647Z,60440.57
2018-09-24T16:54:16.220Z,60423.29
2018-09-24T16:56:49.653Z,60406.02
2018-09-24T16:59:23.056Z,60414.14
2018-09-24T17:01:56.495Z,60414.14
2018-09-24T17:04:29.911Z,60409.07
2018-09-24T17:07:03.516Z,60439.55
2018-09-24T17:09:36.969Z,60408.05
2018-09-24T17:12:10.581Z,60412.11
2018-09-24T17:14:44.071Z,60425.32
2018-09-24T17:17:17.613Z,60435.48
2018-09-24T17:19:51.015Z,60436.50
2018-09-24T17:22:24.467Z,60437.52
2018-09-24T17:24:57.927Z,60440.57
2018-09-24T17:27:31.532Z,60431.42
2018-09-24T17:30:04.996Z,60432.44
2018-09-24T17:32:38.675Z,60424.31
2018-09-24T17:35:12.279Z,60447.68
2018-09-24T17:37:45.688Z,60411.10
2018-09-24T17:40:19.311Z,60412.11
2018-09-24T17:42:52.824Z,60437.52
2018-09-24T17:45:26.349Z,60444.63
2018-09-24T17:48:00.420Z,60455.81
2018-09-24T17:50:34.529Z,60421.26
2018-09-24T17:53:08.242Z,60439.55
2018-09-24T17:55:41.851Z,60435.48
2018-09-24T17:58:15.827Z,60433.45
2018-09-24T18:00:49.468Z,60418.21
2018-09-24T18:03:23.213Z,60455.81
2018-09-24T18:05:56.937Z,60442.60
2018-09-24T18:08:30.303Z,60449.71
2018-09-24T18:11:03.664Z,60442.60
2018-09-24T18:13:37.219Z,60423.29
2018-09-24T18:16:11.460Z,60440.57
2018-09-24T18:18:45.177Z,60437.52
2018-09-24T18:21:18.749Z,60452.76
2018-09-24T18:23:53.360Z,60444.63
2018-09-24T18:26:27.875Z,60454.79
2018-09-24T18:29:01.491Z,60414.14
2018-09-24T18:31:34.941Z,60459.87
2018-09-24T18:34:09.116Z,60437.52
2018-09-24T18:36:42.522Z,60450.73
2018-09-24T18:39:16.198Z,60460.89
2018-09-24T18:41:49.719Z,60464.96
2018-09-24T18:44:24.567Z,60430.40
2018-09-24T18:46:58.119Z,60479.18
2018-09-24T18:49:31.651Z,60418.21
2018-09-24T18:52:05.297Z,60445.65
2018-09-24T18:54:38.787Z,60457.84
2018-09-24T18:57:12.244Z,60453.78
2018-09-24T18:59:45.744Z,60444.63
2018-09-24T19:02:19.356Z,60441.58
2018-09-24T19:04:52.882Z,60443.61
2018-09-24T19:07:26.383Z,60476.13
2018-09-24T19:10:07.519Z,60456.82
2018-09-24T19:12:41.030Z,60458.86
2018-09-24T19:15:14.512Z,60436.50
2018-09-24T19:17:48.033Z,60453.78
2018-09-24T19:20:21.532Z,60443.61
2018-09-24T19:22:54.995Z,60432.44
2018-09-24T19:25:28.468Z,60443.61
2018-09-24T19:28:02.070Z,60452.76
2018-09-24T19:30:35.694Z,60455.81
2018-09-24T19:33:10.175Z,60449.71
2018-09-24T19:35:43.583Z,60470.04
2018-09-24T19:38:17.176Z,60446.66
2018-09-24T19:40:50.875Z,60433.45
2018-09-24T19:43:24.701Z,60445.65
2018-09-24T19:45:58.310Z,60476.13
2018-09-24T19:48:31.997Z,60474.10
2018-09-24T19:51:07.246Z,60444.63
2018-09-24T19:53:40.763Z,60475.12
2018-09-24T19:56:14.269Z,60442.60
2018-09-24T19:58:47.930Z,60473.09
2018-09-24T20:01:21.501Z,60441.58
2018-09-24T20:03:54.907Z,60452.76
2018-09-24T20:06:28.336Z,60463.94
2018-09-24T20:09:01.787Z,60448.70
2018-09-24T20:11:35.312Z,60443.61
2018-09-24T20:14:08.919Z,60460.89
2018-09-24T20:16:44.214Z,60448.70
2018-09-24T20:19:18.623Z,60465.97
2018-09-24T20:21:52.667Z,60453.78
2018-09-24T20:24:26.655Z,60486.29
2018-09-24T20:27:00.137Z,60457.84
2018-09-24T20:29:33.644Z,60478.16
2018-09-24T20:32:07.175Z,60449.71
2018-09-24T20:34:40.703Z,60422.27
2018-09-24T20:37:14.219Z,60473.09
2018-09-24T20:39:47.702Z,60440.57
2018-09-24T20:42:21.228Z,60477.15
2018-09-24T20:44:54.951Z,60470.04
2018-09-24T20:47:28.489Z,60472.07
2018-09-24T20:50:02.024Z,60469.02
2018-09-24T20:52:35.551Z,60463.94
2018-09-24T20:55:09.067Z,60469.02
2018-09-24T20:57:42.626Z,60457.84
2018-09-24T21:00:16.180Z,60472.07
2018-09-24T21:02:49.603Z,60476.13
2018-09-24T21:05:23.117Z,60444.63
2018-09-24T21:07:56.567Z,60451.75
2018-09-24T21:10:30.031Z,60441.58
2018-09-24T21:13:03.470Z,60462.92
2018-09-24T21:15:36.977Z,60469.02
2018-09-24T21:18:10.511Z,60459.87
2018-09-24T21:20:43.870Z,60481.21
2018-09-24T21:23:17.292Z,60484.26
2018-09-24T21:25:50.746Z,60475.12
2018-09-24T21:28:24.155Z,60474.10
2018-09-24T21:30:57.640Z,60498.49
2018-09-24T21:33:31.225Z,60466.99
2018-09-24T21:36:04.673Z,60487.31
2018-09-24T21:38:38.182Z,60473.09
2018-09-24T21:41:11.964Z,60480.20
2018-09-24T21:43:45.280Z,60458.86
2018-09-24T21:46:18.917Z,60464.96
2018-09-24T21:48:52.223Z,60463.94
2018-09-24T21:51:25.763Z,60490.36
2018-09-24T21:53:59.249Z,60446.66
2018-09-24T21:56:32.678Z,60480.20
2018-09-24T21:59:06.158Z,60481.21
2018-09-24T22:01:39.656Z,60455.81
2018-09-24T22:04:13.074Z,60482.23
2018-09-24T22:06:46.641Z,60446.66
2018-09-24T22:09:20.161Z,60461.91
2018-09-24T22:11:53.639Z,60484.26
2018-09-24T22:14:27.218Z,60460.89
2018-09-24T22:17:00.655Z,60481.21
2018-09-24T22:19:34.136Z,60495.44
2018-09-24T22:22:07.655Z,60489.34
2018-09-24T22:24:41.159Z,60460.89
2018-09-24T22:27:14.522Z,60454.79
2018-09-24T22:29:47.959Z,60482.23
2018-09-24T22:32:21.439Z,60493.41
2018-09-24T22:34:54.907Z,60470.04
2018-09-24T22:37:28.371Z,60478.16
2018-09-24T22:40:01.895Z,60471.05
2018-09-24T22:42:35.380Z,60485.28
2018-09-24T22:45:08.963Z,60486.29
2018-09-24T22:47:42.392Z,60526.95
2018-09-24T22:50:15.943Z,60489.34
2018-09-24T22:52:49.366Z,60461.91
2018-09-24T22:55:23.012Z,60457.84
2018-09-24T22:57:56.496Z,60476.13
2018-09-24T23:00:29.963Z,60490.36
2018-09-24T23:03:03.448Z,60476.13
2018-09-24T23:05:36.902Z,60497.47
2018-09-24T23:08:10.531Z,60479.18
2018-09-24T23:10:44.054Z,60474.10
2018-09-24T23:13:17.523Z,60482.23
2018-09-24T23:15:51.038Z,60489.34
2018-09-24T23:18:24.485Z,60457.84
2018-09-24T23:20:57.958Z,60496.46
2018-09-24T23:23:31.487Z,60498.49
2018-09-24T23:26:04.908Z,60450.73
2018-09-24T23:28:38.507Z,60483.25
2018-09-24T23:31:12.326Z,60481.21
2018-09-24T23:33:45.885Z,60480.20
2018-09-24T23:36:19.352Z,60470.04
2018-09-24T23:38:52.791Z,60476.13
2018-09-24T23:41:26.222Z,60496.46
2018-09-24T23:43:59.710Z,60482.23
2018-09-24T23:46:33.215Z,60510.68
2018-09-24T23:49:06.680Z,60483.25
2018-09-24T23:51:40.288Z,60486.29
2018-09-24T23:54:13.736Z,60502.55
2018-09-24T23:56:47.223Z,60485.28
2018-09-24T23:59:20.648Z,60526.95
